sensor_id;sensor_type;location;lat;lon;timestamp;pressure;altitude;pressure_sealevel;temperature;humidity
50226;BME280;36113;50.742;6.432;2024-02-16T00:01:14;98253.06;;;12.32;64.34
50226;BME280;36113;50.742;6.432;2024-02-16T00:03:39;98239.72;;;12.31;64.29
50226;BME280;36113;50.742;6.432;2024-02-16T00:06:05;98240.59;;;12.45;63.84
50226;BME280;36113;50.742;6.432;2024-02-16T00:08:30;98250.47;;;12.41;64.36
50226;BME280;36113;50.742;6.432;2024-02-16T00:10:56;98250.72;;;12.45;63.46
50226;BME280;36113;50.742;6.432;2024-02-16T00:13:21;98223.13;;;12.46;63.95
50226;BME280;36113;50.742;6.432;2024-02-16T00:15:47;98218.44;;;12.33;64.09
50226;BME280;36113;50.742;6.432;2024-02-16T00:18:13;98206.75;;;12.32;63.73
50226;BME280;36113;50.742;6.432;2024-02-16T00:20:38;98231.75;;;12.53;63.43
50226;BME280;36113;50.742;6.432;2024-02-16T00:23:03;98235.56;;;12.52;63.86
50226;BME280;36113;50.742;6.432;2024-02-16T00:25:29;98230.63;;;12.54;63.40
50226;BME280;36113;50.742;6.432;2024-02-16T00:27:54;98218.19;;;12.48;63.56
50226;BME280;36113;50.742;6.432;2024-02-16T00:30:20;98222.56;;;12.49;63.64
50226;BME280;36113;50.742;6.432;2024-02-16T00:32:45;98237.81;;;12.64;63.63
50226;BME280;36113;50.742;6.432;2024-02-16T00:35:11;98238.03;;;12.68;63.61
50226;BME280;36113;50.742;6.432;2024-02-16T00:37:37;98241.50;;;12.73;63.71
50226;BME280;36113;50.742;6.432;2024-02-16T00:40:03;98244.22;;;12.73;63.16
50226;BME280;36113;50.742;6.432;2024-02-16T00:42:29;98239.59;;;12.74;63.96
50226;BME280;36113;50.742;6.432;2024-02-16T00:44:56;98255.66;;;12.75;63.53
50226;BME280;36113;50.742;6.432;2024-02-16T00:47:21;98244.75;;;12.75;64.10
50226;BME280;36113;50.742;6.432;2024-02-16T00:49:48;98261.31;;;12.79;63.76
50226;BME280;36113;50.742;6.432;2024-02-16T00:52:14;98261.00;;;12.80;64.08
50226;BME280;36113;50.742;6.432;2024-02-16T00:54:39;98256.47;;;12.76;63.82
50226;BME280;36113;50.742;6.432;2024-02-16T00:57:04;98253.13;;;12.79;64.41
50226;BME280;36113;50.742;6.432;2024-02-16T00:59:30;98249.88;;;12.77;64.11
50226;BME280;36113;50.742;6.432;2024-02-16T01:01:55;98251.41;;;12.83;64.14
50226;BME280;36113;50.742;6.432;2024-02-16T01:04:21;98229.63;;;12.64;64.14
50226;BME280;36113;50.742;6.432;2024-02-16T01:06:46;98258.06;;;12.77;64.24
50226;BME280;36113;50.742;6.432;2024-02-16T01:09:11;98245.97;;;12.83;64.19
50226;BME280;36113;50.742;6.432;2024-02-16T01:11:40;98248.59;;;12.88;64.30
50226;BME280;36113;50.742;6.432;2024-02-16T01:14:05;98243.63;;;12.90;64.61
50226;BME280;36113;50.742;6.432;2024-02-16T01:16:30;98240.28;;;12.79;64.59
50226;BME280;36113;50.742;6.432;2024-02-16T01:18:56;98245.97;;;12.83;64.13
50226;BME280;36113;50.742;6.432;2024-02-16T01:21:22;98249.72;;;12.87;64.57
50226;BME280;36113;50.742;6.432;2024-02-16T01:23:47;98218.66;;;12.69;64.50
50226;BME280;36113;50.742;6.432;2024-02-16T01:26:13;98228.66;;;12.74;64.16
50226;BME280;36113;50.742;6.432;2024-02-16T01:28:38;98206.72;;;12.65;63.99
50226;BME280;36113;50.742;6.432;2024-02-16T01:31:04;98245.78;;;12.93;64.34
50226;BME280;36113;50.742;6.432;2024-02-16T01:33:29;98250.91;;;12.95;64.39
50226;BME280;36113;50.742;6.432;2024-02-16T01:35:54;98241.94;;;12.94;64.30
50226;BME280;36113;50.742;6.432;2024-02-16T01:38:20;98240.53;;;12.97;64.03
50226;BME280;36113;50.742;6.432;2024-02-16T01:40:48;98233.66;;;12.99;63.48
50226;BME280;36113;50.742;6.432;2024-02-16T01:43:13;98209.19;;;12.80;63.81
50226;BME280;36113;50.742;6.432;2024-02-16T01:45:44;98241.25;;;13.02;64.01
50226;BME280;36113;50.742;6.432;2024-02-16T01:48:09;98230.44;;;12.97;63.71
50226;BME280;36113;50.742;6.432;2024-02-16T01:50:35;98232.56;;;13.00;63.75
50226;BME280;36113;50.742;6.432;2024-02-16T01:53:00;98217.88;;;12.96;63.80
50226;BME280;36113;50.742;6.432;2024-02-16T01:55:26;98215.16;;;12.96;63.96
50226;BME280;36113;50.742;6.432;2024-02-16T01:57:51;98250.84;;;13.14;64.09
50226;BME280;36113;50.742;6.432;2024-02-16T02:00:17;98244.09;;;13.11;64.18
50226;BME280;36113;50.742;6.432;2024-02-16T02:02:46;98241.53;;;13.15;64.12
50226;BME280;36113;50.742;6.432;2024-02-16T02:05:12;98236.00;;;13.20;64.21
50226;BME280;36113;50.742;6.432;2024-02-16T02:07:38;98215.78;;;13.07;63.92
50226;BME280;36113;50.742;6.432;2024-02-16T02:10:04;98240.06;;;13.22;63.88
50226;BME280;36113;50.742;6.432;2024-02-16T02:12:29;98213.84;;;13.08;63.95
50226;BME280;36113;50.742;6.432;2024-02-16T02:14:55;98226.81;;;13.16;63.96
50226;BME280;36113;50.742;6.432;2024-02-16T02:17:20;98236.69;;;13.25;63.59
50226;BME280;36113;50.742;6.432;2024-02-16T02:19:46;98237.13;;;13.33;63.97
50226;BME280;36113;50.742;6.432;2024-02-16T02:22:19;98230.44;;;13.25;64.67
50226;BME280;36113;50.742;6.432;2024-02-16T02:24:45;98252.53;;;13.29;64.95
50226;BME280;36113;50.742;6.432;2024-02-16T02:27:11;98243.50;;;13.28;65.29
50226;BME280;36113;50.742;6.432;2024-02-16T02:29:36;98239.25;;;13.22;65.44
50226;BME280;36113;50.742;6.432;2024-02-16T02:32:02;98250.47;;;13.20;65.50
50226;BME280;36113;50.742;6.432;2024-02-16T02:34:27;98241.16;;;13.21;65.89
50226;BME280;36113;50.742;6.432;2024-02-16T02:36:53;98215.50;;;13.09;65.84
50226;BME280;36113;50.742;6.432;2024-02-16T02:39:18;98239.03;;;13.18;65.64
50226;BME280;36113;50.742;6.432;2024-02-16T02:41:43;98212.75;;;13.09;66.09
50226;BME280;36113;50.742;6.432;2024-02-16T02:44:09;98197.19;;;12.95;66.02
50226;BME280;36113;50.742;6.432;2024-02-16T02:46:34;98235.00;;;13.16;65.95
50226;BME280;36113;50.742;6.432;2024-02-16T02:49:00;98229.81;;;13.14;66.37
50226;BME280;36113;50.742;6.432;2024-02-16T02:51:25;98239.13;;;13.13;66.52
50226;BME280;36113;50.742;6.432;2024-02-16T02:53:52;98237.31;;;13.09;66.45
50226;BME280;36113;50.742;6.432;2024-02-16T02:56:17;98241.88;;;13.13;66.27
50226;BME280;36113;50.742;6.432;2024-02-16T02:58:43;98235.91;;;13.11;66.56
50226;BME280;36113;50.742;6.432;2024-02-16T03:01:08;98240.22;;;13.12;66.60
50226;BME280;36113;50.742;6.432;2024-02-16T03:03:34;98204.03;;;12.93;66.55
50226;BME280;36113;50.742;6.432;2024-02-16T03:05:59;98206.75;;;12.93;67.22
50226;BME280;36113;50.742;6.432;2024-02-16T03:08:25;98237.84;;;13.11;67.11
50226;BME280;36113;50.742;6.432;2024-02-16T03:10:50;98192.72;;;12.86;67.43
50226;BME280;36113;50.742;6.432;2024-02-16T03:13:16;98218.69;;;12.97;67.58
50226;BME280;36113;50.742;6.432;2024-02-16T03:15:44;98239.63;;;13.01;67.53
50226;BME280;36113;50.742;6.432;2024-02-16T03:18:09;98221.91;;;12.85;68.04
50226;BME280;36113;50.742;6.432;2024-02-16T03:20:35;98201.69;;;12.72;68.22
50226;BME280;36113;50.742;6.432;2024-02-16T03:23:01;98194.50;;;12.62;68.60
50226;BME280;36113;50.742;6.432;2024-02-16T03:25:26;98228.78;;;12.82;69.12
50226;BME280;36113;50.742;6.432;2024-02-16T03:27:51;98232.63;;;12.81;68.81
50226;BME280;36113;50.742;6.432;2024-02-16T03:30:18;98188.44;;;12.52;68.92
50226;BME280;36113;50.742;6.432;2024-02-16T03:32:50;98221.00;;;12.76;69.04
50226;BME280;36113;50.742;6.432;2024-02-16T03:35:16;98216.63;;;12.75;69.01
50226;BME280;36113;50.742;6.432;2024-02-16T03:37:42;98219.88;;;12.77;69.44
50226;BME280;36113;50.742;6.432;2024-02-16T03:40:08;98222.09;;;12.75;69.10
50226;BME280;36113;50.742;6.432;2024-02-16T03:42:35;98204.81;;;12.79;68.49
50226;BME280;36113;50.742;6.432;2024-02-16T03:45:00;98181.81;;;12.72;68.46
50226;BME280;36113;50.742;6.432;2024-02-16T03:47:26;98214.88;;;12.84;68.68
50226;BME280;36113;50.742;6.432;2024-02-16T03:49:51;98199.47;;;12.74;68.66
50226;BME280;36113;50.742;6.432;2024-02-16T03:52:16;98213.53;;;12.81;68.83
50226;BME280;36113;50.742;6.432;2024-02-16T03:54:42;98227.88;;;12.87;69.12
50226;BME280;36113;50.742;6.432;2024-02-16T03:57:09;98210.56;;;12.64;68.97
50226;BME280;36113;50.742;6.432;2024-02-16T03:59:36;98220.06;;;12.67;69.33
50226;BME280;36113;50.742;6.432;2024-02-16T04:02:02;98251.81;;;12.76;69.44
50226;BME280;36113;50.742;6.432;2024-02-16T04:04:27;98214.00;;;12.56;69.67
50226;BME280;36113;50.742;6.432;2024-02-16T04:06:52;98251.97;;;12.66;70.07
50226;BME280;36113;50.742;6.432;2024-02-16T04:09:18;98266.44;;;12.67;70.07
50226;BME280;36113;50.742;6.432;2024-02-16T04:11:45;98235.66;;;12.47;70.21
50226;BME280;36113;50.742;6.432;2024-02-16T04:14:10;98258.63;;;12.60;70.21
50226;BME280;36113;50.742;6.432;2024-02-16T04:16:36;98261.66;;;12.58;70.44
50226;BME280;36113;50.742;6.432;2024-02-16T04:19:02;98262.47;;;12.59;70.40
50226;BME280;36113;50.742;6.432;2024-02-16T04:21:27;98253.13;;;12.46;70.69
50226;BME280;36113;50.742;6.432;2024-02-16T04:23:52;98243.44;;;12.40;70.26
50226;BME280;36113;50.742;6.432;2024-02-16T04:26:17;98231.78;;;12.34;70.64
50226;BME280;36113;50.742;6.432;2024-02-16T04:28:43;98235.03;;;12.36;70.35
50226;BME280;36113;50.742;6.432;2024-02-16T04:31:08;98202.56;;;12.21;71.02
50226;BME280;36113;50.742;6.432;2024-02-16T04:33:33;98232.19;;;12.41;70.54
50226;BME280;36113;50.742;6.432;2024-02-16T04:35:59;98242.22;;;12.46;70.42
50226;BME280;36113;50.742;6.432;2024-02-16T04:38:24;98251.50;;;12.45;70.80
50226;BME280;36113;50.742;6.432;2024-02-16T04:40:49;98259.97;;;12.43;70.75
50226;BME280;36113;50.742;6.432;2024-02-16T04:43:15;98233.44;;;12.16;71.18
50226;BME280;36113;50.742;6.432;2024-02-16T04:45:40;98260.16;;;12.33;71.08
50226;BME280;36113;50.742;6.432;2024-02-16T04:48:05;98260.34;;;12.37;70.70
50226;BME280;36113;50.742;6.432;2024-02-16T04:50:34;98229.81;;;12.21;70.90
50226;BME280;36113;50.742;6.432;2024-02-16T04:53:00;98257.63;;;12.37;71.08
50226;BME280;36113;50.742;6.432;2024-02-16T04:55:29;98231.50;;;12.17;70.78
50226;BME280;36113;50.742;6.432;2024-02-16T04:57:55;98255.72;;;12.37;70.74
50226;BME280;36113;50.742;6.432;2024-02-16T05:00:21;98255.72;;;12.37;70.40
50226;BME280;36113;50.742;6.432;2024-02-16T05:02:46;98249.53;;;12.32;70.49
50226;BME280;36113;50.742;6.432;2024-02-16T05:05:12;98247.63;;;12.32;70.65
50226;BME280;36113;50.742;6.432;2024-02-16T05:07:37;98252.03;;;12.28;70.55
50226;BME280;36113;50.742;6.432;2024-02-16T05:10:03;98243.56;;;12.30;70.45
50226;BME280;36113;50.742;6.432;2024-02-16T05:12:29;98240.63;;;12.26;70.84
50226;BME280;36113;50.742;6.432;2024-02-16T05:14:54;98239.81;;;12.26;70.77
50226;BME280;36113;50.742;6.432;2024-02-16T05:17:20;98220.03;;;12.20;70.84
50226;BME280;36113;50.742;6.432;2024-02-16T05:19:46;98224.50;;;12.11;70.64
50226;BME280;36113;50.742;6.432;2024-02-16T05:22:11;98234.47;;;12.20;70.78
50226;BME280;36113;50.742;6.432;2024-02-16T05:24:37;98243.16;;;12.23;71.19
50226;BME280;36113;50.742;6.432;2024-02-16T05:27:02;98253.53;;;12.20;70.91
50226;BME280;36113;50.742;6.432;2024-02-16T05:29:27;98223.69;;;12.10;71.06
50226;BME280;36113;50.742;6.432;2024-02-16T05:31:53;98136.84;;;11.52;71.20
50226;BME280;36113;50.742;6.432;2024-02-16T05:34:18;98251.25;;;12.28;71.09
50226;BME280;36113;50.742;6.432;2024-02-16T05:36:44;98242.84;;;12.24;71.02
50226;BME280;36113;50.742;6.432;2024-02-16T05:39:10;98217.16;;;12.11;70.90
50226;BME280;36113;50.742;6.432;2024-02-16T05:41:48;98241.13;;;12.28;70.99
50226;BME280;36113;50.742;6.432;2024-02-16T05:44:13;98231.41;;;12.22;70.85
50226;BME280;36113;50.742;6.432;2024-02-16T05:46:39;98228.69;;;12.22;70.65
50226;BME280;36113;50.742;6.432;2024-02-16T05:49:05;98213.84;;;12.14;70.64
50226;BME280;36113;50.742;6.432;2024-02-16T05:51:37;98230.22;;;12.28;71.03
50226;BME280;36113;50.742;6.432;2024-02-16T05:54:03;98219.84;;;12.30;71.14
50226;BME280;36113;50.742;6.432;2024-02-16T05:56:28;98203.88;;;12.24;71.35
50226;BME280;36113;50.742;6.432;2024-02-16T05:58:54;98191.75;;;12.16;70.80
50226;BME280;36113;50.742;6.432;2024-02-16T06:01:19;98221.69;;;12.35;70.85
50226;BME280;36113;50.742;6.432;2024-02-16T06:03:45;98191.66;;;12.21;71.10
50226;BME280;36113;50.742;6.432;2024-02-16T06:06:10;98212.19;;;12.32;71.17
50226;BME280;36113;50.742;6.432;2024-02-16T06:08:35;98220.78;;;12.39;71.04
50226;BME280;36113;50.742;6.432;2024-02-16T06:11:00;98219.09;;;12.43;70.97
50226;BME280;36113;50.742;6.432;2024-02-16T06:13:30;98224.03;;;12.41;70.91
50226;BME280;36113;50.742;6.432;2024-02-16T06:15:55;98200.41;;;12.37;70.99
50226;BME280;36113;50.742;6.432;2024-02-16T06:18:20;98218.94;;;12.54;70.78
50226;BME280;36113;50.742;6.432;2024-02-16T06:20:45;98215.19;;;12.50;70.58
50226;BME280;36113;50.742;6.432;2024-02-16T06:23:11;98210.53;;;12.50;70.48
50226;BME280;36113;50.742;6.432;2024-02-16T06:25:36;98202.06;;;12.52;70.63
50226;BME280;36113;50.742;6.432;2024-02-16T06:28:02;98218.31;;;12.57;70.79
50226;BME280;36113;50.742;6.432;2024-02-16T06:30:28;98226.72;;;12.60;70.65
50226;BME280;36113;50.742;6.432;2024-02-16T06:32:53;98222.69;;;12.58;70.41
50226;BME280;36113;50.742;6.432;2024-02-16T06:35:20;98242.78;;;12.62;70.25
50226;BME280;36113;50.742;6.432;2024-02-16T06:37:45;98253.59;;;12.67;70.62
50226;BME280;36113;50.742;6.432;2024-02-16T06:40:11;98250.38;;;12.65;70.71
50226;BME280;36113;50.742;6.432;2024-02-16T06:42:37;98259.56;;;12.69;70.36
50226;BME280;36113;50.742;6.432;2024-02-16T06:45:03;98252.81;;;12.67;70.42
50226;BME280;36113;50.742;6.432;2024-02-16T06:47:30;98272.69;;;12.67;70.50
50226;BME280;36113;50.742;6.432;2024-02-16T06:49:55;98236.94;;;12.36;70.62
50226;BME280;36113;50.742;6.432;2024-02-16T06:52:20;98297.44;;;12.71;70.70
50226;BME280;36113;50.742;6.432;2024-02-16T06:54:46;98298.25;;;12.71;70.27
50226;BME280;36113;50.742;6.432;2024-02-16T06:57:11;98275.16;;;12.50;70.33
50226;BME280;36113;50.742;6.432;2024-02-16T06:59:36;98298.94;;;12.63;70.56
50226;BME280;36113;50.742;6.432;2024-02-16T07:02:02;98313.00;;;12.70;70.82
50226;BME280;36113;50.742;6.432;2024-02-16T07:04:28;98319.25;;;12.71;70.49
50226;BME280;36113;50.742;6.432;2024-02-16T07:06:53;98325.31;;;12.68;70.70
50226;BME280;36113;50.742;6.432;2024-02-16T07:09:18;98330.66;;;12.73;70.67
50226;BME280;36113;50.742;6.432;2024-02-16T07:11:44;98332.06;;;12.70;70.62
50226;BME280;36113;50.742;6.432;2024-02-16T07:14:12;98335.03;;;12.74;70.73
50226;BME280;36113;50.742;6.432;2024-02-16T07:16:38;98335.59;;;12.71;71.01
50226;BME280;36113;50.742;6.432;2024-02-16T07:19:03;98331.38;;;12.65;70.64
50226;BME280;36113;50.742;6.432;2024-02-16T07:21:28;98321.41;;;12.55;71.04
50226;BME280;36113;50.742;6.432;2024-02-16T07:23:54;98323.41;;;12.49;70.84
50226;BME280;36113;50.742;6.432;2024-02-16T07:26:19;98305.97;;;12.31;70.90
50226;BME280;36113;50.742;6.432;2024-02-16T07:28:45;98353.56;;;12.58;71.11
50226;BME280;36113;50.742;6.432;2024-02-16T07:31:11;98356.81;;;12.60;70.87
50226;BME280;36113;50.742;6.432;2024-02-16T07:33:36;98361.41;;;12.59;71.12
50226;BME280;36113;50.742;6.432;2024-02-16T07:36:01;98354.66;;;12.57;70.92
50226;BME280;36113;50.742;6.432;2024-02-16T07:38:27;98359.81;;;12.58;71.51
50226;BME280;36113;50.742;6.432;2024-02-16T07:40:54;98371.44;;;12.64;71.20
50226;BME280;36113;50.742;6.432;2024-02-16T07:43:19;98369.81;;;12.63;71.22
50226;BME280;36113;50.742;6.432;2024-02-16T07:45:44;98353.84;;;12.56;71.32
50226;BME280;36113;50.742;6.432;2024-02-16T07:48:10;98373.78;;;12.71;71.29
50226;BME280;36113;50.742;6.432;2024-02-16T07:50:35;98321.13;;;12.37;71.42
50226;BME280;36113;50.742;6.432;2024-02-16T07:53:00;98370.78;;;12.72;71.74
50226;BME280;36113;50.742;6.432;2024-02-16T07:55:26;98360.63;;;12.59;71.53
50226;BME280;36113;50.742;6.432;2024-02-16T07:57:51;98378.16;;;12.72;71.97
50226;BME280;36113;50.742;6.432;2024-02-16T08:00:17;98350.75;;;12.63;71.96
50226;BME280;36113;50.742;6.432;2024-02-16T08:02:43;98381.59;;;12.77;71.78
50226;BME280;36113;50.742;6.432;2024-02-16T08:05:10;98340.06;;;12.67;72.03
50226;BME280;36113;50.742;6.432;2024-02-16T08:07:35;98364.94;;;12.79;72.28
50226;BME280;36113;50.742;6.432;2024-02-16T08:10:00;98374.91;;;12.89;72.80
50226;BME280;36113;50.742;6.432;2024-02-16T08:12:26;98373.25;;;12.88;72.32
50226;BME280;36113;50.742;6.432;2024-02-16T08:14:53;98351.13;;;12.75;71.77
50226;BME280;36113;50.742;6.432;2024-02-16T08:17:18;98341.28;;;12.74;71.90
50226;BME280;36113;50.742;6.432;2024-02-16T08:19:51;98391.19;;;12.94;72.27
50226;BME280;36113;50.742;6.432;2024-02-16T08:22:17;98354.03;;;12.79;72.20
50226;BME280;36113;50.742;6.432;2024-02-16T08:24:43;98379.66;;;12.97;72.25
50226;BME280;36113;50.742;6.432;2024-02-16T08:27:11;98385.34;;;13.00;72.01
50226;BME280;36113;50.742;6.432;2024-02-16T08:29:38;98371.34;;;12.88;71.76
50226;BME280;36113;50.742;6.432;2024-02-16T08:32:03;98361.25;;;12.89;71.98
50226;BME280;36113;50.742;6.432;2024-02-16T08:34:30;98368.84;;;12.92;72.08
50226;BME280;36113;50.742;6.432;2024-02-16T08:36:56;98387.69;;;13.07;72.20
50226;BME280;36113;50.742;6.432;2024-02-16T08:39:21;98362.34;;;12.88;72.04
50226;BME280;36113;50.742;6.432;2024-02-16T08:41:50;98395.78;;;13.12;71.49
50226;BME280;36113;50.742;6.432;2024-02-16T08:44:15;98386.38;;;13.04;71.40
50226;BME280;36113;50.742;6.432;2024-02-16T08:46:40;98378.56;;;12.98;71.80
50226;BME280;36113;50.742;6.432;2024-02-16T08:49:06;98397.19;;;13.10;71.44
50226;BME280;36113;50.742;6.432;2024-02-16T08:51:32;98421.97;;;13.13;71.13
50226;BME280;36113;50.742;6.432;2024-02-16T08:53:58;98419.84;;;13.10;71.70
50226;BME280;36113;50.742;6.432;2024-02-16T08:56:23;98339.03;;;12.62;71.93
50226;BME280;36113;50.742;6.432;2024-02-16T08:58:48;98417.63;;;13.12;71.67
50226;BME280;36113;50.742;6.432;2024-02-16T09:01:14;98407.81;;;13.11;71.77
50226;BME280;36113;50.742;6.432;2024-02-16T09:03:40;98383.81;;;12.94;71.78
50226;BME280;36113;50.742;6.432;2024-02-16T09:06:06;98388.88;;;13.01;71.29
50226;BME280;36113;50.742;6.432;2024-02-16T09:08:32;98428.28;;;13.28;71.28
50226;BME280;36113;50.742;6.432;2024-02-16T09:10:59;98408.97;;;13.24;70.97
50226;BME280;36113;50.742;6.432;2024-02-16T09:13:24;98408.38;;;13.27;70.99
50226;BME280;36113;50.742;6.432;2024-02-16T09:15:50;98411.25;;;13.36;70.61
50226;BME280;36113;50.742;6.432;2024-02-16T09:18:17;98441.22;;;13.55;71.03
50226;BME280;36113;50.742;6.432;2024-02-16T09:20:42;98421.56;;;13.39;71.08
50226;BME280;36113;50.742;6.432;2024-02-16T09:23:07;98452.06;;;13.46;70.78
50226;BME280;36113;50.742;6.432;2024-02-16T09:25:33;98462.66;;;13.48;70.77
50226;BME280;36113;50.742;6.432;2024-02-16T09:27:59;98466.28;;;13.43;71.37
50226;BME280;36113;50.742;6.432;2024-02-16T09:30:25;98464.44;;;13.38;71.58
50226;BME280;36113;50.742;6.432;2024-02-16T09:32:50;98467.56;;;13.32;71.64
50226;BME280;36113;50.742;6.432;2024-02-16T09:35:15;98463.78;;;13.28;72.41
50226;BME280;36113;50.742;6.432;2024-02-16T09:37:41;98422.50;;;12.96;72.04
50226;BME280;36113;50.742;6.432;2024-02-16T09:40:07;98423.25;;;13.02;72.78
50226;BME280;36113;50.742;6.432;2024-02-16T09:42:37;98450.22;;;13.22;72.50
50226;BME280;36113;50.742;6.432;2024-02-16T09:45:04;98450.31;;;13.17;72.61
50226;BME280;36113;50.742;6.432;2024-02-16T09:47:30;98454.88;;;13.22;72.38
50226;BME280;36113;50.742;6.432;2024-02-16T09:49:58;98456.75;;;13.21;72.20
50226;BME280;36113;50.742;6.432;2024-02-16T09:52:23;98481.44;;;13.35;72.74
50226;BME280;36113;50.742;6.432;2024-02-16T09:54:49;98455.66;;;13.22;72.82
50226;BME280;36113;50.742;6.432;2024-02-16T09:57:16;98486.00;;;13.40;72.64
50226;BME280;36113;50.742;6.432;2024-02-16T09:59:42;98501.69;;;13.48;72.86
50226;BME280;36113;50.742;6.432;2024-02-16T10:02:11;98486.91;;;13.35;72.74
50226;BME280;36113;50.742;6.432;2024-02-16T10:04:36;98454.13;;;13.16;72.51
50226;BME280;36113;50.742;6.432;2024-02-16T10:07:02;98503.41;;;13.44;72.76
50226;BME280;36113;50.742;6.432;2024-02-16T10:09:28;98488.13;;;13.24;73.50
50226;BME280;36113;50.742;6.432;2024-02-16T10:11:59;98509.97;;;13.43;73.19
50226;BME280;36113;50.742;6.432;2024-02-16T10:14:25;98491.34;;;13.26;73.58
50226;BME280;36113;50.742;6.432;2024-02-16T10:17:04;98485.19;;;13.20;73.68
50226;BME280;36113;50.742;6.432;2024-02-16T10:19:30;98513.50;;;13.43;73.81
50226;BME280;36113;50.742;6.432;2024-02-16T10:22:11;98534.31;;;13.58;73.71
50226;BME280;36113;50.742;6.432;2024-02-16T10:24:36;98506.56;;;13.51;73.65
50226;BME280;36113;50.742;6.432;2024-02-16T10:27:04;98519.84;;;13.58;73.43
50226;BME280;36113;50.742;6.432;2024-02-16T10:29:32;98549.66;;;13.87;73.75
50226;BME280;36113;50.742;6.432;2024-02-16T10:31:57;98552.31;;;13.92;73.51
50226;BME280;36113;50.742;6.432;2024-02-16T10:34:24;98530.00;;;13.71;73.93
50226;BME280;36113;50.742;6.432;2024-02-16T10:36:49;98562.72;;;13.90;73.86
50226;BME280;36113;50.742;6.432;2024-02-16T10:39:16;98552.13;;;13.89;73.99
50226;BME280;36113;50.742;6.432;2024-02-16T10:41:44;98571.25;;;13.89;73.71
50226;BME280;36113;50.742;6.432;2024-02-16T10:44:10;98569.91;;;13.86;74.21
50226;BME280;36113;50.742;6.432;2024-02-16T10:46:35;98585.59;;;13.94;73.88
50226;BME280;36113;50.742;6.432;2024-02-16T10:49:01;98577.41;;;13.94;73.81
50226;BME280;36113;50.742;6.432;2024-02-16T10:54:03;98576.44;;;14.04;73.79
50226;BME280;36113;50.742;6.432;2024-02-16T10:56:37;98554.88;;;14.02;73.59
50226;BME280;36113;50.742;6.432;2024-02-16T10:59:11;98554.34;;;14.00;73.82
50226;BME280;36113;50.742;6.432;2024-02-16T11:01:41;98580.28;;;14.17;73.71
50226;BME280;36113;50.742;6.432;2024-02-16T11:04:08;98581.31;;;14.21;73.35
50226;BME280;36113;50.742;6.432;2024-02-16T11:06:54;98577.16;;;14.10;73.44
50226;BME280;36113;50.742;6.432;2024-02-16T11:09:35;98586.09;;;14.15;73.37
50226;BME280;36113;50.742;6.432;2024-02-16T11:12:05;98578.69;;;14.16;74.00
50226;BME280;36113;50.742;6.432;2024-02-16T11:14:42;98593.91;;;14.22;73.53
50226;BME280;36113;50.742;6.432;2024-02-16T11:17:11;98580.00;;;14.18;72.83
50226;BME280;36113;50.742;6.432;2024-02-16T11:19:37;98569.97;;;14.14;73.10
50226;BME280;36113;50.742;6.432;2024-02-16T11:22:04;98603.44;;;14.38;73.17
50226;BME280;36113;50.742;6.432;2024-02-16T11:24:34;98614.25;;;14.43;72.65
50226;BME280;36113;50.742;6.432;2024-02-16T11:27:04;98576.97;;;14.20;72.66
50226;BME280;36113;50.742;6.432;2024-02-16T11:29:32;98613.84;;;14.36;73.11
50226;BME280;36113;50.742;6.432;2024-02-16T11:32:00;98608.31;;;14.41;73.04
50226;BME280;36113;50.742;6.432;2024-02-16T11:34:25;98588.31;;;14.27;72.98
50226;BME280;36113;50.742;6.432;2024-02-16T11:37:04;98615.81;;;14.49;72.36
50226;BME280;36113;50.742;6.432;2024-02-16T11:39:30;98624.13;;;14.44;72.82
50226;BME280;36113;50.742;6.432;2024-02-16T11:42:06;98615.28;;;14.34;72.50
50226;BME280;36113;50.742;6.432;2024-02-16T11:44:33;98621.94;;;14.27;73.15
50226;BME280;36113;50.742;6.432;2024-02-16T11:46:59;98616.72;;;14.12;73.29
50226;BME280;36113;50.742;6.432;2024-02-16T11:49:25;98623.56;;;14.15;73.39
50226;BME280;36113;50.742;6.432;2024-02-16T11:51:50;98641.34;;;14.12;73.72
50226;BME280;36113;50.742;6.432;2024-02-16T11:54:16;98632.13;;;14.08;74.49
50226;BME280;36113;50.742;6.432;2024-02-16T11:56:45;98646.59;;;14.08;74.83
50226;BME280;36113;50.742;6.432;2024-02-16T11:59:14;98595.47;;;13.76;75.00
50226;BME280;36113;50.742;6.432;2024-02-16T12:04:23;98646.19;;;14.01;75.59
50226;BME280;36113;50.742;6.432;2024-02-16T12:06:55;98639.09;;;14.00;75.55
50226;BME280;36113;50.742;6.432;2024-02-16T12:09:20;98625.28;;;13.92;75.87
50226;BME280;36113;50.742;6.432;2024-02-16T12:11:48;98633.72;;;13.95;76.22
50226;BME280;36113;50.742;6.432;2024-02-16T12:14:13;98642.97;;;14.13;76.59
50226;BME280;36113;50.742;6.432;2024-02-16T12:16:38;98646.00;;;14.12;76.43
50226;BME280;36113;50.742;6.432;2024-02-16T12:19:06;98627.75;;;14.07;76.67
50226;BME280;36113;50.742;6.432;2024-02-16T12:21:32;98657.59;;;14.22;76.65
50226;BME280;36113;50.742;6.432;2024-02-16T12:23:58;98652.78;;;14.14;77.06
50226;BME280;36113;50.742;6.432;2024-02-16T12:26:24;98640.06;;;13.91;77.95
50226;BME280;36113;50.742;6.432;2024-02-16T12:28:49;98641.75;;;13.86;79.14
50226;BME280;36113;50.742;6.432;2024-02-16T12:31:19;98639.84;;;13.87;79.80
50226;BME280;36113;50.742;6.432;2024-02-16T12:33:45;98647.53;;;13.85;79.79
50226;BME280;36113;50.742;6.432;2024-02-16T12:36:10;98662.97;;;13.76;81.59
50226;BME280;36113;50.742;6.432;2024-02-16T12:38:36;98647.53;;;13.47;82.66
50226;BME280;36113;50.742;6.432;2024-02-16T12:41:01;98666.03;;;13.50;83.49
50226;BME280;36113;50.742;6.432;2024-02-16T12:43:26;98642.28;;;13.32;83.83
50226;BME280;36113;50.742;6.432;2024-02-16T12:45:51;98671.59;;;13.45;84.64
50226;BME280;36113;50.742;6.432;2024-02-16T12:48:17;98671.81;;;13.49;84.93
50226;BME280;36113;50.742;6.432;2024-02-16T12:50:42;98670.50;;;13.46;85.27
50226;BME280;36113;50.742;6.432;2024-02-16T12:53:08;98666.84;;;13.32;85.57
50226;BME280;36113;50.742;6.432;2024-02-16T12:55:34;98669.50;;;13.37;85.46
50226;BME280;36113;50.742;6.432;2024-02-16T12:58:01;98682.50;;;13.45;85.92
50226;BME280;36113;50.742;6.432;2024-02-16T13:00:26;98676.16;;;13.50;86.00